sensor_id;sensor_type;location;lat;lon;timestamp;P1;durP1;ratioP1;P2;durP2;ratioP2
61675;SDS011;47574;52.090;5.244;2023-04-25T00:00:47;15.4;;;4.61;;
61675;SDS011;47574;52.090;5.244;2023-04-25T00:02:24;17.61;;;4.5;;
61675;SDS011;47574;52.090;5.244;2023-04-25T00:04:00;14.7;;;4.3;;
61675;SDS011;47574;52.090;5.244;2023-04-25T00:07:13;22.4;;;5.2;;
61675;SDS011;47574;52.090;5.244;2023-04-25T00:08:49;18.41;;;5.0;;
61675;SDS011;47574;52.090;5.244;2023-04-25T00:10:25;17.5;;;4.5;;
61675;SDS011;47574;52.090;5.244;2023-04-25T00:13:37;22.4;;;5.2;;
61675;SDS011;47574;52.090;5.244;2023-04-25T00:15:14;26.5;;;5.4;;
61675;SDS011;47574;52.090;5.244;2023-04-25T00:16:50;17.41;;;5.2;;
61675;SDS011;47574;52.090;5.244;2023-04-25T00:20:02;19.91;;;5.4;;
61675;SDS011;47574;52.090;5.244;2023-04-25T00:21:38;15.9;;;5.0;;
61675;SDS011;47574;52.090;5.244;2023-04-25T00:23:15;21.0;;;4.91;;
61675;SDS011;47574;52.090;5.244;2023-04-25T00:24:51;23.1;;;5.0;;
61675;SDS011;47574;52.090;5.244;2023-04-25T00:28:05;23.1;;;5.0;;
61675;SDS011;47574;52.090;5.244;2023-04-25T00:29:41;20.41;;;5.3;;
61675;SDS011;47574;52.090;5.244;2023-04-25T00:31:17;19.0;;;5.0;;
61675;SDS011;47574;52.090;5.244;2023-04-25T00:34:29;18.61;;;4.91;;
61675;SDS011;47574;52.090;5.244;2023-04-25T00:36:06;17.91;;;4.8;;
61675;SDS011;47574;52.090;5.244;2023-04-25T00:37:42;18.3;;;4.7;;
61675;SDS011;47574;52.090;5.244;2023-04-25T00:40:56;17.7;;;4.3;;
61675;SDS011;47574;52.090;5.244;2023-04-25T00:42:32;15.5;;;4.2;;
61675;SDS011;47574;52.090;5.244;2023-04-25T00:44:08;16.4;;;4.61;;
61675;SDS011;47574;52.090;5.244;2023-04-25T00:45:45;17.11;;;4.8;;
61675;SDS011;47574;52.090;5.244;2023-04-25T00:49:00;17.3;;;4.7;;
61675;SDS011;47574;52.090;5.244;2023-04-25T00:50:36;20.7;;;4.5;;
61675;SDS011;47574;52.090;5.244;2023-04-25T00:52:13;18.8;;;4.7;;
61675;SDS011;47574;52.090;5.244;2023-04-25T00:55:27;18.5;;;4.61;;
61675;SDS011;47574;52.090;5.244;2023-04-25T00:57:03;24.4;;;5.4;;
61675;SDS011;47574;52.090;5.244;2023-04-25T00:58:39;19.61;;;4.8;;
61675;SDS011;47574;52.090;5.244;2023-04-25T01:01:53;22.0;;;5.2;;
61675;SDS011;47574;52.090;5.244;2023-04-25T01:03:30;18.11;;;5.11;;
61675;SDS011;47574;52.090;5.244;2023-04-25T01:05:08;18.7;;;4.7;;
61675;SDS011;47574;52.090;5.244;2023-04-25T01:06:45;18.3;;;4.8;;
61675;SDS011;47574;52.090;5.244;2023-04-25T01:09:59;19.41;;;4.7;;
61675;SDS011;47574;52.090;5.244;2023-04-25T01:11:35;17.5;;;4.5;;
61675;SDS011;47574;52.090;5.244;2023-04-25T01:13:11;17.11;;;4.5;;
61675;SDS011;47574;52.090;5.244;2023-04-25T01:16:23;25.4;;;5.5;;
61675;SDS011;47574;52.090;5.244;2023-04-25T01:18:00;16.3;;;4.1;;
61675;SDS011;47574;52.090;5.244;2023-04-25T01:19:36;20.6;;;5.0;;
61675;SDS011;47574;52.090;5.244;2023-04-25T01:22:49;17.5;;;4.5;;
61675;SDS011;47574;52.090;5.244;2023-04-25T01:24:26;17.91;;;4.8;;
61675;SDS011;47574;52.090;5.244;2023-04-25T01:26:03;16.11;;;4.5;;
61675;SDS011;47574;52.090;5.244;2023-04-25T01:27:41;17.11;;;5.3;;
61675;SDS011;47574;52.090;5.244;2023-04-25T01:30:55;17.5;;;4.91;;
61675;SDS011;47574;52.090;5.244;2023-04-25T01:32:32;18.11;;;4.61;;
61675;SDS011;47574;52.090;5.244;2023-04-25T01:34:09;18.91;;;4.8;;
61675;SDS011;47574;52.090;5.244;2023-04-25T01:37:22;17.11;;;4.8;;
61675;SDS011;47574;52.090;5.244;2023-04-25T01:38:58;16.2;;;4.7;;
61675;SDS011;47574;52.090;5.244;2023-04-25T01:40:36;22.7;;;5.2;;
61675;SDS011;47574;52.090;5.244;2023-04-25T01:42:15;19.5;;;4.8;;
61675;SDS011;47574;52.090;5.244;2023-04-25T01:45:30;18.91;;;4.8;;
61675;SDS011;47574;52.090;5.244;2023-04-25T01:47:06;14.9;;;4.91;;
61675;SDS011;47574;52.090;5.244;2023-04-25T01:48:42;17.91;;;4.8;;
61675;SDS011;47574;52.090;5.244;2023-04-25T01:51:54;21.3;;;4.91;;
61675;SDS011;47574;52.090;5.244;2023-04-25T01:53:30;20.0;;;4.7;;
61675;SDS011;47574;52.090;5.244;2023-04-25T01:55:07;16.7;;;5.0;;
61675;SDS011;47574;52.090;5.244;2023-04-25T01:58:26;17.7;;;5.0;;
61675;SDS011;47574;52.090;5.244;2023-04-25T02:00:03;16.5;;;5.11;;
61675;SDS011;47574;52.090;5.244;2023-04-25T02:01:42;18.61;;;5.0;;
61675;SDS011;47574;52.090;5.244;2023-04-25T02:03:18;20.5;;;5.11;;
61675;SDS011;47574;52.090;5.244;2023-04-25T02:06:30;14.6;;;4.8;;
61675;SDS011;47574;52.090;5.244;2023-04-25T02:08:07;17.8;;;4.91;;
61675;SDS011;47574;52.090;5.244;2023-04-25T02:09:45;15.5;;;4.91;;
61675;SDS011;47574;52.090;5.244;2023-04-25T02:12:57;16.4;;;4.41;;
61675;SDS011;47574;52.090;5.244;2023-04-25T02:14:33;16.9;;;4.8;;
61675;SDS011;47574;52.090;5.244;2023-04-25T02:16:09;17.8;;;4.8;;
61675;SDS011;47574;52.090;5.244;2023-04-25T02:17:45;17.41;;;4.8;;
61675;SDS011;47574;52.090;5.244;2023-04-25T02:20:58;18.11;;;4.41;;
61675;SDS011;47574;52.090;5.244;2023-04-25T02:22:35;18.7;;;5.2;;
61675;SDS011;47574;52.090;5.244;2023-04-25T02:24:11;16.0;;;5.5;;
61675;SDS011;47574;52.090;5.244;2023-04-25T02:27:24;14.8;;;4.7;;
61675;SDS011;47574;52.090;5.244;2023-04-25T02:29:00;17.0;;;4.7;;
61675;SDS011;47574;52.090;5.244;2023-04-25T02:30:36;18.2;;;4.7;;
61675;SDS011;47574;52.090;5.244;2023-04-25T02:33:49;19.5;;;4.91;;
61675;SDS011;47574;52.090;5.244;2023-04-25T02:35:26;17.0;;;5.11;;
61675;SDS011;47574;52.090;5.244;2023-04-25T02:37:02;19.0;;;5.3;;
61675;SDS011;47574;52.090;5.244;2023-04-25T02:38:38;15.7;;;5.11;;
61675;SDS011;47574;52.090;5.244;2023-04-25T02:41:51;19.11;;;5.6;;
61675;SDS011;47574;52.090;5.244;2023-04-25T02:43:27;17.2;;;4.7;;
61675;SDS011;47574;52.090;5.244;2023-04-25T02:45:04;18.5;;;4.7;;
61675;SDS011;47574;52.090;5.244;2023-04-25T02:48:17;15.6;;;4.41;;
61675;SDS011;47574;52.090;5.244;2023-04-25T02:49:53;13.3;;;4.5;;
61675;SDS011;47574;52.090;5.244;2023-04-25T02:51:29;18.2;;;4.8;;
61675;SDS011;47574;52.090;5.244;2023-04-25T02:54:41;18.2;;;4.8;;
61675;SDS011;47574;52.090;5.244;2023-04-25T02:56:17;14.9;;;4.8;;
61675;SDS011;47574;52.090;5.244;2023-04-25T02:57:53;19.3;;;4.7;;
61675;SDS011;47574;52.090;5.244;2023-04-25T03:01:06;15.6;;;4.91;;
61675;SDS011;47574;52.090;5.244;2023-04-25T03:02:42;16.9;;;5.11;;
61675;SDS011;47574;52.090;5.244;2023-04-25T03:04:18;16.2;;;5.0;;
61675;SDS011;47574;52.090;5.244;2023-04-25T03:05:54;15.3;;;4.61;;
61675;SDS011;47574;52.090;5.244;2023-04-25T03:09:06;14.1;;;4.2;;
61675;SDS011;47574;52.090;5.244;2023-04-25T03:10:43;18.8;;;4.91;;
61675;SDS011;47574;52.090;5.244;2023-04-25T03:12:19;14.3;;;4.3;;
61675;SDS011;47574;52.090;5.244;2023-04-25T03:15:32;16.0;;;4.61;;
61675;SDS011;47574;52.090;5.244;2023-04-25T03:17:08;12.8;;;4.3;;
61675;SDS011;47574;52.090;5.244;2023-04-25T03:18:44;16.5;;;4.7;;
61675;SDS011;47574;52.090;5.244;2023-04-25T03:21:56;15.5;;;4.3;;
61675;SDS011;47574;52.090;5.244;2023-04-25T03:23:32;20.7;;;5.0;;
61675;SDS011;47574;52.090;5.244;2023-04-25T03:25:09;16.7;;;4.8;;
61675;SDS011;47574;52.090;5.244;2023-04-25T03:26:45;14.8;;;4.5;;
61675;SDS011;47574;52.090;5.244;2023-04-25T03:29:58;16.2;;;4.91;;
61675;SDS011;47574;52.090;5.244;2023-04-25T03:31:34;14.5;;;4.3;;
61675;SDS011;47574;52.090;5.244;2023-04-25T03:33:10;16.8;;;4.41;;
61675;SDS011;47574;52.090;5.244;2023-04-25T03:36:22;20.8;;;5.0;;
61675;SDS011;47574;52.090;5.244;2023-04-25T03:37:58;16.61;;;4.61;;
61675;SDS011;47574;52.090;5.244;2023-04-25T03:39:36;14.8;;;3.9;;
61675;SDS011;47574;52.090;5.244;2023-04-25T03:42:48;15.8;;;3.5;;
61675;SDS011;47574;52.090;5.244;2023-04-25T03:44:24;16.2;;;3.7;;
61675;SDS011;47574;52.090;5.244;2023-04-25T03:46:00;9.21;;;3.0;;
61675;SDS011;47574;52.090;5.244;2023-04-25T03:49:12;11.9;;;3.1;;
61675;SDS011;47574;52.090;5.244;2023-04-25T03:50:48;13.6;;;2.9;;
61675;SDS011;47574;52.090;5.244;2023-04-25T03:52:25;11.0;;;2.7;;
61675;SDS011;47574;52.090;5.244;2023-04-25T03:54:01;9.1;;;2.8;;
61675;SDS011;47574;52.090;5.244;2023-04-25T03:57:13;16.4;;;3.4;;
61675;SDS011;47574;52.090;5.244;2023-04-25T03:58:49;7.9;;;2.7;;
61675;SDS011;47574;52.090;5.244;2023-04-25T04:00:25;10.4;;;2.9;;
61675;SDS011;47574;52.090;5.244;2023-04-25T04:03:37;11.5;;;3.2;;
61675;SDS011;47574;52.090;5.244;2023-04-25T04:05:14;9.5;;;2.5;;
61675;SDS011;47574;52.090;5.244;2023-04-25T04:06:50;11.3;;;2.9;;
61675;SDS011;47574;52.090;5.244;2023-04-25T04:10:02;12.2;;;2.6;;
61675;SDS011;47574;52.090;5.244;2023-04-25T04:11:38;8.9;;;3.1;;
61675;SDS011;47574;52.090;5.244;2023-04-25T04:13:14;9.31;;;2.7;;
61675;SDS011;47574;52.090;5.244;2023-04-25T04:16:26;11.6;;;3.0;;
61675;SDS011;47574;52.090;5.244;2023-04-25T04:18:03;10.6;;;2.8;;
61675;SDS011;47574;52.090;5.244;2023-04-25T04:19:39;10.5;;;3.1;;
61675;SDS011;47574;52.090;5.244;2023-04-25T04:21:15;8.81;;;2.5;;
61675;SDS011;47574;52.090;5.244;2023-04-25T04:24:27;9.6;;;2.6;;
61675;SDS011;47574;52.090;5.244;2023-04-25T04:26:03;8.5;;;2.8;;
61675;SDS011;47574;52.090;5.244;2023-04-25T04:27:39;13.4;;;2.7;;
61675;SDS011;47574;52.090;5.244;2023-04-25T04:30:52;9.31;;;2.4;;
61675;SDS011;47574;52.090;5.244;2023-04-25T04:32:29;13.2;;;2.9;;
61675;SDS011;47574;52.090;5.244;2023-04-25T04:34:05;8.6;;;2.4;;
61675;SDS011;47574;52.090;5.244;2023-04-25T04:37:17;10.4;;;2.5;;
61675;SDS011;47574;52.090;5.244;2023-04-25T04:38:53;11.0;;;3.0;;
61675;SDS011;47574;52.090;5.244;2023-04-25T04:40:30;13.3;;;3.2;;
61675;SDS011;47574;52.090;5.244;2023-04-25T04:42:06;11.3;;;3.1;;
61675;SDS011;47574;52.090;5.244;2023-04-25T04:45:19;8.4;;;2.31;;
61675;SDS011;47574;52.090;5.244;2023-04-25T04:46:55;10.4;;;2.5;;
61675;SDS011;47574;52.090;5.244;2023-04-25T04:48:31;9.6;;;3.2;;
61675;SDS011;47574;52.090;5.244;2023-04-25T04:51:46;9.71;;;3.3;;
61675;SDS011;47574;52.090;5.244;2023-04-25T04:53:22;9.5;;;3.7;;
61675;SDS011;47574;52.090;5.244;2023-04-25T04:54:58;8.31;;;2.7;;
61675;SDS011;47574;52.090;5.244;2023-04-25T04:58:11;11.6;;;4.0;;
61675;SDS011;47574;52.090;5.244;2023-04-25T04:59:47;8.4;;;3.3;;
61675;SDS011;47574;52.090;5.244;2023-04-25T05:01:23;12.3;;;3.2;;
61675;SDS011;47574;52.090;5.244;2023-04-25T05:03:00;9.6;;;3.2;;
61675;SDS011;47574;52.090;5.244;2023-04-25T05:06:12;12.3;;;3.3;;
61675;SDS011;47574;52.090;5.244;2023-04-25T05:07:48;13.4;;;2.9;;
61675;SDS011;47574;52.090;5.244;2023-04-25T05:09:25;10.0;;;3.2;;
61675;SDS011;47574;52.090;5.244;2023-04-25T05:12:38;9.5;;;2.8;;
61675;SDS011;47574;52.090;5.244;2023-04-25T05:14:14;12.0;;;2.8;;
61675;SDS011;47574;52.090;5.244;2023-04-25T05:15:50;11.5;;;2.8;;
61675;SDS011;47574;52.090;5.244;2023-04-25T05:19:03;9.21;;;2.8;;
61675;SDS011;47574;52.090;5.244;2023-04-25T05:20:39;12.7;;;2.8;;
61675;SDS011;47574;52.090;5.244;2023-04-25T05:22:15;9.4;;;2.8;;
61675;SDS011;47574;52.090;5.244;2023-04-25T05:25:27;7.9;;;2.7;;
61675;SDS011;47574;52.090;5.244;2023-04-25T05:27:03;7.7;;;2.6;;
61675;SDS011;47574;52.090;5.244;2023-04-25T05:28:39;8.81;;;2.8;;
61675;SDS011;47574;52.090;5.244;2023-04-25T05:30:15;9.9;;;2.8;;
61675;SDS011;47574;52.090;5.244;2023-04-25T05:33:28;10.6;;;2.6;;
61675;SDS011;47574;52.090;5.244;2023-04-25T05:35:04;9.71;;;2.31;;
61675;SDS011;47574;52.090;5.244;2023-04-25T05:36:41;11.0;;;2.6;;
61675;SDS011;47574;52.090;5.244;2023-04-25T05:39:53;8.0;;;2.21;;
61675;SDS011;47574;52.090;5.244;2023-04-25T05:41:29;10.1;;;2.5;;
61675;SDS011;47574;52.090;5.244;2023-04-25T05:43:05;10.0;;;2.21;;
61675;SDS011;47574;52.090;5.244;2023-04-25T05:46:18;8.0;;;2.6;;
61675;SDS011;47574;52.090;5.244;2023-04-25T05:47:54;9.0;;;2.4;;
61675;SDS011;47574;52.090;5.244;2023-04-25T05:49:30;9.9;;;2.6;;
61675;SDS011;47574;52.090;5.244;2023-04-25T05:51:06;8.2;;;2.31;;
61675;SDS011;47574;52.090;5.244;2023-04-25T05:54:20;10.0;;;2.21;;
61675;SDS011;47574;52.090;5.244;2023-04-25T05:55:55;11.6;;;2.4;;
61675;SDS011;47574;52.090;5.244;2023-04-25T05:57:31;8.81;;;2.5;;
61675;SDS011;47574;52.090;5.244;2023-04-25T06:00:43;8.71;;;2.5;;
61675;SDS011;47574;52.090;5.244;2023-04-25T06:02:19;6.5;;;2.31;;
61675;SDS011;47574;52.090;5.244;2023-04-25T06:03:56;10.4;;;2.21;;
61675;SDS011;47574;52.090;5.244;2023-04-25T06:07:09;8.31;;;2.31;;
61675;SDS011;47574;52.090;5.244;2023-04-25T06:08:45;9.5;;;2.31;;
61675;SDS011;47574;52.090;5.244;2023-04-25T06:10:21;9.81;;;2.31;;
61675;SDS011;47574;52.090;5.244;2023-04-25T06:13:33;8.81;;;2.21;;
61675;SDS011;47574;52.090;5.244;2023-04-25T06:15:10;10.3;;;2.7;;
61675;SDS011;47574;52.090;5.244;2023-04-25T06:16:46;10.9;;;2.6;;
61675;SDS011;47574;52.090;5.244;2023-04-25T06:18:22;15.3;;;2.4;;
61675;SDS011;47574;52.090;5.244;2023-04-25T06:21:34;12.6;;;2.8;;
61675;SDS011;47574;52.090;5.244;2023-04-25T06:23:10;10.9;;;2.4;;
61675;SDS011;47574;52.090;5.244;2023-04-25T06:24:47;10.7;;;2.6;;
61675;SDS011;47574;52.090;5.244;2023-04-25T06:28:00;12.0;;;2.6;;
61675;SDS011;47574;52.090;5.244;2023-04-25T06:29:36;11.8;;;2.8;;
61675;SDS011;47574;52.090;5.244;2023-04-25T06:31:12;12.6;;;2.8;;
61675;SDS011;47574;52.090;5.244;2023-04-25T06:34:24;11.3;;;2.7;;
61675;SDS011;47574;52.090;5.244;2023-04-25T06:36:00;13.3;;;2.9;;
61675;SDS011;47574;52.090;5.244;2023-04-25T06:37:36;10.8;;;2.9;;
61675;SDS011;47574;52.090;5.244;2023-04-25T06:40:49;10.5;;;2.21;;
61675;SDS011;47574;52.090;5.244;2023-04-25T06:42:25;12.2;;;2.8;;
61675;SDS011;47574;52.090;5.244;2023-04-25T06:44:01;10.5;;;2.4;;
61675;SDS011;47574;52.090;5.244;2023-04-25T06:45:37;12.0;;;2.7;;
61675;SDS011;47574;52.090;5.244;2023-04-25T06:48:50;13.9;;;3.1;;
61675;SDS011;47574;52.090;5.244;2023-04-25T06:50:26;12.9;;;3.1;;
61675;SDS011;47574;52.090;5.244;2023-04-25T06:52:03;11.6;;;2.8;;
61675;SDS011;47574;52.090;5.244;2023-04-25T06:55:16;12.3;;;2.4;;
61675;SDS011;47574;52.090;5.244;2023-04-25T06:56:52;12.2;;;2.6;;
61675;SDS011;47574;52.090;5.244;2023-04-25T06:58:28;12.7;;;3.0;;
61675;SDS011;47574;52.090;5.244;2023-04-25T07:01:43;10.1;;;3.0;;
61675;SDS011;47574;52.090;5.244;2023-04-25T07:03:19;11.8;;;2.8;;
61675;SDS011;47574;52.090;5.244;2023-04-25T07:04:55;10.9;;;3.0;;
61675;SDS011;47574;52.090;5.244;2023-04-25T07:06:33;15.6;;;2.8;;
61675;SDS011;47574;52.090;5.244;2023-04-25T07:09:45;11.8;;;3.0;;
61675;SDS011;47574;52.090;5.244;2023-04-25T07:11:21;14.3;;;3.2;;
61675;SDS011;47574;52.090;5.244;2023-04-25T07:12:57;12.0;;;2.9;;
61675;SDS011;47574;52.090;5.244;2023-04-25T07:16:09;11.7;;;2.8;;
61675;SDS011;47574;52.090;5.244;2023-04-25T07:17:46;12.8;;;2.9;;
61675;SDS011;47574;52.090;5.244;2023-04-25T07:19:22;10.1;;;2.4;;
61675;SDS011;47574;52.090;5.244;2023-04-25T07:22:34;11.9;;;2.6;;
61675;SDS011;47574;52.090;5.244;2023-04-25T07:24:10;10.9;;;2.8;;
61675;SDS011;47574;52.090;5.244;2023-04-25T07:25:46;10.6;;;3.0;;
61675;SDS011;47574;52.090;5.244;2023-04-25T07:27:22;11.2;;;2.4;;
61675;SDS011;47574;52.090;5.244;2023-04-25T07:30:35;11.6;;;2.6;;
61675;SDS011;47574;52.090;5.244;2023-04-25T07:32:11;14.4;;;2.7;;
61675;SDS011;47574;52.090;5.244;2023-04-25T07:33:47;10.1;;;3.1;;
61675;SDS011;47574;52.090;5.244;2023-04-25T07:36:59;10.21;;;2.6;;
61675;SDS011;47574;52.090;5.244;2023-04-25T07:38:35;10.5;;;2.6;;
61675;SDS011;47574;52.090;5.244;2023-04-25T07:40:12;9.71;;;2.5;;
61675;SDS011;47574;52.090;5.244;2023-04-25T07:43:25;12.8;;;2.31;;
61675;SDS011;47574;52.090;5.244;2023-04-25T07:45:01;10.4;;;2.6;;
61675;SDS011;47574;52.090;5.244;2023-04-25T07:46:37;9.9;;;2.4;;
61675;SDS011;47574;52.090;5.244;2023-04-25T07:49:53;8.5;;;2.1;;
61675;SDS011;47574;52.090;5.244;2023-04-25T07:51:29;13.0;;;2.8;;
61675;SDS011;47574;52.090;5.244;2023-04-25T07:53:05;11.5;;;2.6;;
61675;SDS011;47574;52.090;5.244;2023-04-25T07:54:41;9.5;;;2.0;;
61675;SDS011;47574;52.090;5.244;2023-04-25T07:57:54;8.9;;;2.4;;
61675;SDS011;47574;52.090;5.244;2023-04-25T07:59:30;9.1;;;1.9;;
61675;SDS011;47574;52.090;5.244;2023-04-25T08:01:06;12.0;;;2.31;;
61675;SDS011;47574;52.090;5.244;2023-04-25T08:04:18;9.4;;;2.1;;
61675;SDS011;47574;52.090;5.244;2023-04-25T08:05:54;12.0;;;2.4;;
61675;SDS011;47574;52.090;5.244;2023-04-25T08:07:30;10.8;;;2.1;;
61675;SDS011;47574;52.090;5.244;2023-04-25T08:10:43;7.3;;;1.8;;
61675;SDS011;47574;52.090;5.244;2023-04-25T08:12:19;10.9;;;2.1;;
61675;SDS011;47574;52.090;5.244;2023-04-25T08:13:55;12.1;;;2.4;;
61675;SDS011;47574;52.090;5.244;2023-04-25T08:15:31;8.9;;;1.6;;
61675;SDS011;47574;52.090;5.244;2023-04-25T08:18:44;9.21;;;2.31;;
61675;SDS011;47574;52.090;5.244;2023-04-25T08:20:21;9.21;;;2.0;;
61675;SDS011;47574;52.090;5.244;2023-04-25T08:21:57;9.21;;;2.21;;
61675;SDS011;47574;52.090;5.244;2023-04-25T08:25:09;9.4;;;2.4;;
61675;SDS011;47574;52.090;5.244;2023-04-25T08:26:45;9.4;;;1.9;;
61675;SDS011;47574;52.090;5.244;2023-04-25T08:28:21;8.71;;;2.0;;
61675;SDS011;47574;52.090;5.244;2023-04-25T08:31:33;8.9;;;1.8;;
61675;SDS011;47574;52.090;5.244;2023-04-25T08:33:09;7.9;;;2.1;;
61675;SDS011;47574;52.090;5.244;2023-04-25T08:34:46;9.31;;;1.8;;
61675;SDS011;47574;52.090;5.244;2023-04-25T08:37:58;6.0;;;1.7;;
61675;SDS011;47574;52.090;5.244;2023-04-25T08:39:34;9.81;;;1.9;;
61675;SDS011;47574;52.090;5.244;2023-04-25T08:41:10;9.1;;;2.1;;
61675;SDS011;47574;52.090;5.244;2023-04-25T08:42:47;9.71;;;2.0;;
61675;SDS011;47574;52.090;5.244;2023-04-25T08:46:02;8.6;;;2.1;;
61675;SDS011;47574;52.090;5.244;2023-04-25T08:47:38;10.21;;;2.21;;
61675;SDS011;47574;52.090;5.244;2023-04-25T08:49:15;6.7;;;2.0;;
61675;SDS011;47574;52.090;5.244;2023-04-25T08:52:32;7.0;;;1.8;;
61675;SDS011;47574;52.090;5.244;2023-04-25T08:54:13;8.31;;;2.0;;
61675;SDS011;47574;52.090;5.244;2023-04-25T08:55:50;7.5;;;1.6;;
61675;SDS011;47574;52.090;5.244;2023-04-25T08:57:29;7.0;;;1.6;;
61675;SDS011;47574;52.090;5.244;2023-04-25T09:00:43;7.5;;;1.7;;
61675;SDS011;47574;52.090;5.244;2023-04-25T09:02:21;6.4;;;1.8;;
61675;SDS011;47574;52.090;5.244;2023-04-25T09:03:57;8.4;;;1.9;;
61675;SDS011;47574;52.090;5.244;2023-04-25T09:07:10;7.4;;;1.7;;
61675;SDS011;47574;52.090;5.244;2023-04-25T09:08:46;7.4;;;1.7;;
61675;SDS011;47574;52.090;5.244;2023-04-25T09:10:26;8.1;;;1.6;;
61675;SDS011;47574;52.090;5.244;2023-04-25T09:12:03;5.9;;;1.4;;
61675;SDS011;47574;52.090;5.244;2023-04-25T09:15:16;4.41;;;1.3;;
61675;SDS011;47574;52.090;5.244;2023-04-25T09:17:00;5.9;;;1.5;;
61675;SDS011;47574;52.090;5.244;2023-04-25T09:18:37;7.2;;;1.5;;
61675;SDS011;47574;52.090;5.244;2023-04-25T09:21:50;4.61;;;1.6;;
61675;SDS011;47574;52.090;5.244;2023-04-25T09:23:26;3.1;;;1.2;;
61675;SDS011;47574;52.090;5.244;2023-04-25T09:25:03;4.7;;;1.4;;
61675;SDS011;47574;52.090;5.244;2023-04-25T09:26:44;4.61;;;1.2;;
61675;SDS011;47574;52.090;5.244;2023-04-25T09:30:00;6.6;;;1.7;;
61675;SDS011;47574;52.090;5.244;2023-04-25T09:31:36;7.9;;;1.6;;
61675;SDS011;47574;52.090;5.244;2023-04-25T09:33:12;6.0;;;1.4;;
61675;SDS011;47574;52.090;5.244;2023-04-25T09:36:29;5.11;;;1.3;;
61675;SDS011;47574;52.090;5.244;2023-04-25T09:38:07;4.41;;;1.3;;
61675;SDS011;47574;52.090;5.244;2023-04-25T09:39:44;4.2;;;1.7;;
61675;SDS011;47574;52.090;5.244;2023-04-25T09:41:22;5.8;;;1.6;;
61675;SDS011;47574;52.090;5.244;2023-04-25T09:44:35;5.11;;;1.3;;
61675;SDS011;47574;52.090;5.244;2023-04-25T09:46:12;5.9;;;1.4;;
61675;SDS011;47574;52.090;5.244;2023-04-25T09:47:48;6.2;;;1.8;;
61675;SDS011;47574;52.090;5.244;2023-04-25T09:51:03;6.4;;;1.5;;
61675;SDS011;47574;52.090;5.244;2023-04-25T09:52:42;7.8;;;1.6;;
61675;SDS011;47574;52.090;5.244;2023-04-25T09:54:19;5.3;;;1.5;;
61675;SDS011;47574;52.090;5.244;2023-04-25T09:55:55;5.6;;;1.7;;
61675;SDS011;47574;52.090;5.244;2023-04-25T09:59:08;6.2;;;1.7;;
61675;SDS011;47574;52.090;5.244;2023-04-25T10:00:46;6.6;;;1.6;;
61675;SDS011;47574;52.090;5.244;2023-04-25T10:02:24;8.5;;;1.5;;
61675;SDS011;47574;52.090;5.244;2023-04-25T10:05:42;6.8;;;1.6;;
61675;SDS011;47574;52.090;5.244;2023-04-25T10:07:19;5.6;;;1.6;;
61675;SDS011;47574;52.090;5.244;2023-04-25T10:08:57;5.0;;;1.5;;
61675;SDS011;47574;52.090;5.244;2023-04-25T10:10:34;6.5;;;1.8;;
61675;SDS011;47574;52.090;5.244;2023-04-25T10:13:48;5.8;;;1.5;;
61675;SDS011;47574;52.090;5.244;2023-04-25T10:15:26;7.7;;;1.9;;
61675;SDS011;47574;52.090;5.244;2023-04-25T10:17:03;6.8;;;1.7;;
61675;SDS011;47574;52.090;5.244;2023-04-25T10:20:15;10.9;;;2.7;;
61675;SDS011;47574;52.090;5.244;2023-04-25T10:21:52;8.0;;;2.0;;
61675;SDS011;47574;52.090;5.244;2023-04-25T10:23:33;9.0;;;1.9;;
61675;SDS011;47574;52.090;5.244;2023-04-25T10:25:11;9.71;;;2.1;;
61675;SDS011;47574;52.090;5.244;2023-04-25T10:28:26;6.3;;;1.9;;
61675;SDS011;47574;52.090;5.244;2023-04-25T10:30:02;9.6;;;2.31;;
61675;SDS011;47574;52.090;5.244;2023-04-25T10:31:45;8.1;;;2.1;;
61675;SDS011;47574;52.090;5.244;2023-04-25T10:35:11;8.0;;;1.8;;
61675;SDS011;47574;52.090;5.244;2023-04-25T10:36:50;13.3;;;3.8;;
61675;SDS011;47574;52.090;5.244;2023-04-25T10:38:27;6.4;;;1.9;;
61675;SDS011;47574;52.090;5.244;2023-04-25T10:40:07;5.3;;;1.9;;
61675;SDS011;47574;52.090;5.244;2023-04-25T10:43:33;4.5;;;1.6;;
61675;SDS011;47574;52.090;5.244;2023-04-25T10:45:15;6.1;;;1.3;;
61675;SDS011;47574;52.090;5.244;2023-04-25T10:46:51;5.0;;;1.3;;
61675;SDS011;47574;52.090;5.244;2023-04-25T10:48:27;5.0;;;1.6;;
61675;SDS011;47574;52.090;5.244;2023-04-25T10:51:43;5.9;;;1.2;;
61675;SDS011;47574;52.090;5.244;2023-04-25T10:53:19;6.1;;;2.0;;
61675;SDS011;47574;52.090;5.244;2023-04-25T10:55:00;8.71;;;1.8;;
61675;SDS011;47574;52.090;5.244;2023-04-25T10:56:41;3.8;;;1.6;;
61675;SDS011;47574;52.090;5.244;2023-04-25T10:59:59;5.4;;;1.4;;
61675;SDS011;47574;52.090;5.244;2023-04-25T11:01:40;4.8;;;1.7;;
61675;SDS011;47574;52.090;5.244;2023-04-25T11:03:20;6.3;;;1.6;;
61675;SDS011;47574;52.090;5.244;2023-04-25T11:04:57;6.0;;;3.1;;
61675;SDS011;47574;52.090;5.244;2023-04-25T11:08:36;4.91;;;1.8;;
61675;SDS011;47574;52.090;5.244;2023-04-25T11:10:26;3.1;;;1.5;;
61675;SDS011;47574;52.090;5.244;2023-04-25T11:12:03;6.0;;;1.7;;
61675;SDS011;47574;52.090;5.244;2023-04-25T11:13:40;8.4;;;2.21;;
61675;SDS011;47574;52.090;5.244;2023-04-25T11:16:52;6.3;;;1.9;;
61675;SDS011;47574;52.090;5.244;2023-04-25T11:18:28;4.0;;;1.3;;
61675;SDS011;47574;52.090;5.244;2023-04-25T11:20:05;3.7;;;1.4;;
61675;SDS011;47574;52.090;5.244;2023-04-25T11:21:43;4.91;;;1.5;;
61675;SDS011;47574;52.090;5.244;2023-04-25T11:24:55;5.6;;;1.4;;
61675;SDS011;47574;52.090;5.244;2023-04-25T11:26:31;7.0;;;1.4;;
61675;SDS011;47574;52.090;5.244;2023-04-25T11:28:07;5.6;;;1.4;;
61675;SDS011;47574;52.090;5.244;2023-04-25T11:31:20;5.9;;;1.5;;
61675;SDS011;47574;52.090;5.244;2023-04-25T11:32:57;6.0;;;1.4;;
61675;SDS011;47574;52.090;5.244;2023-04-25T11:34:34;2.5;;;1.0;;
61675;SDS011;47574;52.090;5.244;2023-04-25T11:37:46;4.41;;;1.3;;
61675;SDS011;47574;52.090;5.244;2023-04-25T11:39:23;4.7;;;1.5;;
61675;SDS011;47574;52.090;5.244;2023-04-25T11:41:00;3.4;;;1.5;;
61675;SDS011;47574;52.090;5.244;2023-04-25T11:42:37;4.7;;;1.2;;
61675;SDS011;47574;52.090;5.244;2023-04-25T11:45:53;7.0;;;1.2;;
61675;SDS011;47574;52.090;5.244;2023-04-25T11:47:29;2.9;;;1.11;;
61675;SDS011;47574;52.090;5.244;2023-04-25T11:49:05;3.7;;;1.0;;
61675;SDS011;47574;52.090;5.244;2023-04-25T11:52:17;5.2;;;1.3;;
61675;SDS011;47574;52.090;5.244;2023-04-25T11:53:53;5.4;;;1.5;;
61675;SDS011;47574;52.090;5.244;2023-04-25T11:55:29;5.7;;;1.9;;
61675;SDS011;47574;52.090;5.244;2023-04-25T11:58:59;4.3;;;1.7;;
61675;SDS011;47574;52.090;5.244;2023-04-25T12:00:37;10.8;;;1.3;;
61675;SDS011;47574;52.090;5.244;2023-04-25T12:02:23;5.4;;;1.2;;
61675;SDS011;47574;52.090;5.244;2023-04-25T12:04:09;4.1;;;1.2;;
61675;SDS011;47574;52.090;5.244;2023-04-25T12:05:54;5.4;;;1.3;;
61675;SDS011;47574;52.090;5.244;2023-04-25T12:09:15;6.0;;;1.11;;
61675;SDS011;47574;52.090;5.244;2023-04-25T12:10:55;6.1;;;1.5;;
61675;SDS011;47574;52.090;5.244;2023-04-25T12:12:31;4.5;;;1.4;;
61675;SDS011;47574;52.090;5.244;2023-04-25T12:14:08;2.9;;;0.9;;
61675;SDS011;47574;52.090;5.244;2023-04-25T12:17:20;3.7;;;1.0;;
61675;SDS011;47574;52.090;5.244;2023-04-25T12:18:58;3.1;;;1.0;;
61675;SDS011;47574;52.090;5.244;2023-04-25T12:20:34;4.41;;;1.5;;
61675;SDS011;47574;52.090;5.244;2023-04-25T12:23:56;4.3;;;1.11;;
61675;SDS011;47574;52.090;5.244;2023-04-25T12:25:33;5.2;;;1.3;;
61675;SDS011;47574;52.090;5.244;2023-04-25T12:27:11;6.0;;;1.4;;
61675;SDS011;47574;52.090;5.244;2023-04-25T12:28:51;5.3;;;1.2;;
61675;SDS011;47574;52.090;5.244;2023-04-25T12:32:03;3.3;;;1.3;;
61675;SDS011;47574;52.090;5.244;2023-04-25T12:33:39;4.41;;;1.2;;
61675;SDS011;47574;52.090;5.244;2023-04-25T12:35:15;5.0;;;1.2;;
61675;SDS011;47574;52.090;5.244;2023-04-25T12:38:29;5.4;;;1.5;;
61675;SDS011;47574;52.090;5.244;2023-04-25T12:40:07;6.1;;;1.6;;
61675;SDS011;47574;52.090;5.244;2023-04-25T12:41:44;3.1;;;1.2;;
61675;SDS011;47574;52.090;5.244;2023-04-25T12:43:21;5.2;;;1.3;;
61675;SDS011;47574;52.090;5.244;2023-04-25T12:46:33;6.3;;;1.3;;
61675;SDS011;47574;52.090;5.244;2023-04-25T12:48:09;4.1;;;1.5;;